sensor_id;sensor_type;location;lat;lon;timestamp;pressure;altitude;pressure_sealevel;temperature;humidity
50093;BME280;35974;47.752;10.290;2023-04-24T00:01:51;93048.25;;;8.04;100.00
50093;BME280;35974;47.752;10.290;2023-04-24T00:04:19;93052.28;;;8.06;100.00
50093;BME280;35974;47.752;10.290;2023-04-24T00:06:45;93060.41;;;7.85;100.00
50093;BME280;35974;47.752;10.290;2023-04-24T00:09:15;93057.00;;;7.78;100.00
50093;BME280;35974;47.752;10.290;2023-04-24T00:11:42;93056.34;;;7.89;100.00
50093;BME280;35974;47.752;10.290;2023-04-24T00:14:08;93044.69;;;7.98;100.00
50093;BME280;35974;47.752;10.290;2023-04-24T00:16:34;93042.75;;;7.87;100.00
50093;BME280;35974;47.752;10.290;2023-04-24T00:19:01;93035.09;;;7.92;100.00
50093;BME280;35974;47.752;10.290;2023-04-24T00:21:28;93042.75;;;7.87;100.00
50093;BME280;35974;47.752;10.290;2023-04-24T00:23:54;93039.84;;;7.57;100.00
50093;BME280;35974;47.752;10.290;2023-04-24T00:26:20;93030.84;;;7.59;100.00
50093;BME280;35974;47.752;10.290;2023-04-24T00:28:47;93023.16;;;7.78;100.00
50093;BME280;35974;47.752;10.290;2023-04-24T00:31:14;93019.69;;;7.91;100.00
50093;BME280;35974;47.752;10.290;2023-04-24T00:33:40;92980.06;;;7.37;100.00
50093;BME280;35974;47.752;10.290;2023-04-24T00:36:07;93014.44;;;7.52;100.00
50093;BME280;35974;47.752;10.290;2023-04-24T00:38:33;93015.56;;;7.69;100.00
50093;BME280;35974;47.752;10.290;2023-04-24T00:41:00;93008.22;;;7.53;100.00
50093;BME280;35974;47.752;10.290;2023-04-24T00:43:26;93009.22;;;7.52;100.00
50093;BME280;35974;47.752;10.290;2023-04-24T00:45:52;92998.41;;;7.55;100.00
50093;BME280;35974;47.752;10.290;2023-04-24T00:48:19;93002.44;;;7.51;100.00
50093;BME280;35974;47.752;10.290;2023-04-24T00:50:46;92999.03;;;7.44;100.00
50093;BME280;35974;47.752;10.290;2023-04-24T00:53:12;92994.75;;;7.69;100.00
50093;BME280;35974;47.752;10.290;2023-04-24T00:55:39;92992.69;;;7.85;100.00
50093;BME280;35974;47.752;10.290;2023-04-24T00:58:05;92988.63;;;7.89;100.00
50093;BME280;35974;47.752;10.290;2023-04-24T01:00:31;92988.56;;;8.02;100.00
50093;BME280;35974;47.752;10.290;2023-04-24T01:02:59;92993.00;;;7.95;100.00
50093;BME280;35974;47.752;10.290;2023-04-24T01:05:28;92992.97;;;8.02;100.00
50093;BME280;35974;47.752;10.290;2023-04-24T01:07:54;92996.63;;;7.94;100.00
50093;BME280;35974;47.752;10.290;2023-04-24T01:10:20;92994.66;;;7.83;100.00
50093;BME280;35974;47.752;10.290;2023-04-24T01:12:47;92997.09;;;7.78;100.00
50093;BME280;35974;47.752;10.290;2023-04-24T01:15:14;92993.59;;;7.52;100.00
50093;BME280;35974;47.752;10.290;2023-04-24T01:17:40;92995.72;;;7.23;100.00
50093;BME280;35974;47.752;10.290;2023-04-24T01:20:07;92993.47;;;7.33;100.00
50093;BME280;35974;47.752;10.290;2023-04-24T01:22:34;93005.84;;;7.45;100.00
50093;BME280;35974;47.752;10.290;2023-04-24T01:25:01;93003.25;;;7.45;100.00
50093;BME280;35974;47.752;10.290;2023-04-24T01:27:27;93003.88;;;7.33;100.00
50093;BME280;35974;47.752;10.290;2023-04-24T01:30:01;93001.34;;;7.20;100.00
50093;BME280;35974;47.752;10.290;2023-04-24T01:32:27;92997.75;;;7.08;100.00
50093;BME280;35974;47.752;10.290;2023-04-24T01:34:54;92999.75;;;7.06;100.00
50093;BME280;35974;47.752;10.290;2023-04-24T01:37:26;92997.38;;;6.97;100.00
50093;BME280;35974;47.752;10.290;2023-04-24T01:39:53;93004.56;;;7.09;100.00
50093;BME280;35974;47.752;10.290;2023-04-24T01:42:24;92988.94;;;7.09;100.00
50093;BME280;35974;47.752;10.290;2023-04-24T01:44:50;92992.53;;;7.08;100.00
50093;BME280;35974;47.752;10.290;2023-04-24T01:47:17;92986.53;;;7.14;100.00
50093;BME280;35974;47.752;10.290;2023-04-24T01:49:44;92986.72;;;7.19;100.00
50093;BME280;35974;47.752;10.290;2023-04-24T01:52:11;92993.34;;;7.15;100.00
50093;BME280;35974;47.752;10.290;2023-04-24T01:54:38;92994.56;;;7.06;100.00
50093;BME280;35974;47.752;10.290;2023-04-24T01:57:04;92988.94;;;7.15;100.00
50093;BME280;35974;47.752;10.290;2023-04-24T01:59:31;92990.75;;;7.15;100.00
50093;BME280;35974;47.752;10.290;2023-04-24T02:01:58;92991.75;;;7.07;100.00
50093;BME280;35974;47.752;10.290;2023-04-24T02:04:25;92991.91;;;7.19;100.00
50093;BME280;35974;47.752;10.290;2023-04-24T02:06:51;92987.09;;;7.23;100.00
50093;BME280;35974;47.752;10.290;2023-04-24T02:09:17;92995.72;;;7.23;100.00
50093;BME280;35974;47.752;10.290;2023-04-24T02:11:44;92990.94;;;7.20;100.00
50093;BME280;35974;47.752;10.290;2023-04-24T02:14:10;92991.91;;;7.19;100.00
50093;BME280;35974;47.752;10.290;2023-04-24T02:16:36;92998.31;;;7.23;100.00
50093;BME280;35974;47.752;10.290;2023-04-24T02:19:03;92990.06;;;7.40;100.00
50093;BME280;35974;47.752;10.290;2023-04-24T02:21:43;92999.44;;;7.41;100.00
50093;BME280;35974;47.752;10.290;2023-04-24T02:24:10;92991.22;;;7.44;100.00
50093;BME280;35974;47.752;10.290;2023-04-24T02:29:30;92992.06;;;7.38;100.00
50093;BME280;35974;47.752;10.290;2023-04-24T02:32:05;92991.69;;;7.27;100.00
50093;BME280;35974;47.752;10.290;2023-04-24T02:34:31;92992.53;;;7.08;100.00
50093;BME280;35974;47.752;10.290;2023-04-24T02:37:04;93003.34;;;7.05;100.00
50093;BME280;35974;47.752;10.290;2023-04-24T02:39:30;93001.34;;;7.13;100.00
50093;BME280;35974;47.752;10.290;2023-04-24T02:41:57;92994.53;;;7.19;100.00
50093;BME280;35974;47.752;10.290;2023-04-24T02:44:24;93004.66;;;7.41;100.00
50093;BME280;35974;47.752;10.290;2023-04-24T02:46:50;92998.13;;;7.18;100.00
50093;BME280;35974;47.752;10.290;2023-04-24T02:49:17;92999.13;;;7.17;100.00
50093;BME280;35974;47.752;10.290;2023-04-24T02:51:43;93000.16;;;7.03;100.00
50093;BME280;35974;47.752;10.290;2023-04-24T02:54:09;92996.53;;;7.17;100.00
50093;BME280;35974;47.752;10.290;2023-04-24T02:56:36;92995.72;;;7.10;100.00
50093;BME280;35974;47.752;10.290;2023-04-24T03:01:47;92986.13;;;7.17;100.00
50093;BME280;35974;47.752;10.290;2023-04-24T03:04:13;92990.97;;;7.07;100.00
50093;BME280;35974;47.752;10.290;2023-04-24T03:06:40;92981.38;;;6.94;100.00
50093;BME280;35974;47.752;10.290;2023-04-24T03:09:06;92990.75;;;7.08;100.00
50093;BME280;35974;47.752;10.290;2023-04-24T03:11:32;92976.19;;;6.94;100.00
50093;BME280;35974;47.752;10.290;2023-04-24T03:14:05;92988.78;;;6.97;100.00
50093;BME280;35974;47.752;10.290;2023-04-24T03:16:31;92988.75;;;7.10;100.00
50093;BME280;35974;47.752;10.290;2023-04-24T03:21:34;92990.53;;;7.10;100.00
50093;BME280;35974;47.752;10.290;2023-04-24T03:24:02;92989.28;;;7.26;100.00
50093;BME280;35974;47.752;10.290;2023-04-24T03:26:29;92985.75;;;6.93;100.00
50093;BME280;35974;47.752;10.290;2023-04-24T03:28:55;92990.97;;;6.93;100.00
50093;BME280;35974;47.752;10.290;2023-04-24T03:31:22;92992.53;;;7.08;100.00
50093;BME280;35974;47.752;10.290;2023-04-24T03:33:49;92993.75;;;7.12;100.00
50093;BME280;35974;47.752;10.290;2023-04-24T03:36:16;92994.69;;;7.24;100.00
50093;BME280;35974;47.752;10.290;2023-04-24T03:38:42;92999.28;;;7.36;100.00
50093;BME280;35974;47.752;10.290;2023-04-24T03:41:08;92998.28;;;7.37;100.00
50093;BME280;35974;47.752;10.290;2023-04-24T03:43:35;92991.22;;;7.44;100.00
50093;BME280;35974;47.752;10.290;2023-04-24T03:46:01;92995.72;;;7.23;100.00
50093;BME280;35974;47.752;10.290;2023-04-24T03:48:28;93006.88;;;7.37;100.00
50093;BME280;35974;47.752;10.290;2023-04-24T03:50:54;93002.53;;;7.11;100.00
50093;BME280;35974;47.752;10.290;2023-04-24T03:53:21;93004.16;;;6.99;100.00
50093;BME280;35974;47.752;10.290;2023-04-24T03:55:47;93004.94;;;7.19;100.00
50093;BME280;35974;47.752;10.290;2023-04-24T03:58:14;93008.56;;;7.18;100.00
50093;BME280;35974;47.752;10.290;2023-04-24T04:00:40;92999.78;;;6.92;100.00
50093;BME280;35974;47.752;10.290;2023-04-24T04:03:09;93009.38;;;6.85;100.00
50093;BME280;35974;47.752;10.290;2023-04-24T04:05:35;93010.63;;;6.76;100.00
50093;BME280;35974;47.752;10.290;2023-04-24T04:08:02;93007.78;;;6.97;100.00
50093;BME280;35974;47.752;10.290;2023-04-24T04:10:28;93003.19;;;6.93;100.00
50093;BME280;35974;47.752;10.290;2023-04-24T04:15:24;93002.59;;;6.84;100.00
50093;BME280;35974;47.752;10.290;2023-04-24T04:17:50;93007.81;;;6.84;100.00
50093;BME280;35974;47.752;10.290;2023-04-24T04:20:16;93011.78;;;6.93;100.00
50093;BME280;35974;47.752;10.290;2023-04-24T04:22:43;93009.38;;;6.85;100.00
50093;BME280;35974;47.752;10.290;2023-04-24T04:25:19;93020.59;;;6.79;100.00
50093;BME280;35974;47.752;10.290;2023-04-24T04:27:58;93014.16;;;7.02;100.00
50093;BME280;35974;47.752;10.290;2023-04-24T04:30:26;93013.38;;;6.94;100.00
50093;BME280;35974;47.752;10.290;2023-04-24T04:32:55;93008.56;;;7.05;100.00
50093;BME280;35974;47.752;10.290;2023-04-24T04:35:26;93008.56;;;7.05;100.00
50093;BME280;35974;47.752;10.290;2023-04-24T04:37:58;93018.56;;;7.01;100.00
50093;BME280;35974;47.752;10.290;2023-04-24T04:40:29;93024.13;;;7.31;100.00
50093;BME280;35974;47.752;10.290;2023-04-24T04:42:56;93018.97;;;7.18;100.00
50093;BME280;35974;47.752;10.290;2023-04-24T04:45:22;93020.16;;;7.09;100.00
50093;BME280;35974;47.752;10.290;2023-04-24T04:47:50;93028.13;;;7.27;100.00
50093;BME280;35974;47.752;10.290;2023-04-24T04:50:16;93024.53;;;7.22;100.00
50093;BME280;35974;47.752;10.290;2023-04-24T04:52:46;93019.06;;;7.43;100.00
50093;BME280;35974;47.752;10.290;2023-04-24T04:55:16;93016.13;;;7.13;100.00
50093;BME280;35974;47.752;10.290;2023-04-24T04:57:51;93027.78;;;7.04;100.00
50093;BME280;35974;47.752;10.290;2023-04-24T05:00:18;93024.97;;;7.12;100.00
50093;BME280;35974;47.752;10.290;2023-04-24T05:02:45;93030.59;;;6.69;100.00
50093;BME280;35974;47.752;10.290;2023-04-24T05:05:11;93034.63;;;6.58;100.00
50093;BME280;35974;47.752;10.290;2023-04-24T05:07:38;93038.59;;;6.54;100.00
50093;BME280;35974;47.752;10.290;2023-04-24T05:10:04;93040.59;;;6.45;100.00
50093;BME280;35974;47.752;10.290;2023-04-24T05:12:31;93039.78;;;6.38;100.00
50093;BME280;35974;47.752;10.290;2023-04-24T05:17:28;93041.78;;;6.22;100.00
50093;BME280;35974;47.752;10.290;2023-04-24T05:19:58;93047.38;;;6.33;100.00
50093;BME280;35974;47.752;10.290;2023-04-24T05:22:29;93043.34;;;6.17;100.00
50093;BME280;35974;47.752;10.290;2023-04-24T05:24:55;93051.41;;;6.42;100.00
50093;BME280;35974;47.752;10.290;2023-04-24T05:27:21;93043.97;;;6.26;100.00
50093;BME280;35974;47.752;10.290;2023-04-24T05:29:49;93054.97;;;6.21;100.00
50093;BME280;35974;47.752;10.290;2023-04-24T05:32:15;93059.38;;;6.34;100.00
50093;BME280;35974;47.752;10.290;2023-04-24T05:34:41;93058.97;;;6.37;100.00
50093;BME280;35974;47.752;10.290;2023-04-24T05:37:08;93061.59;;;6.37;100.00
50093;BME280;35974;47.752;10.290;2023-04-24T05:39:36;93067.78;;;6.56;100.00
50093;BME280;35974;47.752;10.290;2023-04-24T05:42:02;93064.59;;;6.47;100.00
50093;BME280;35974;47.752;10.290;2023-04-24T05:44:30;93062.59;;;6.49;100.00
50093;BME280;35974;47.752;10.290;2023-04-24T05:46:56;93057.00;;;6.52;100.00
50093;BME280;35974;47.752;10.290;2023-04-24T05:49:23;93059.38;;;6.47;100.00
50093;BME280;35974;47.752;10.290;2023-04-24T05:51:49;93056.41;;;6.57;100.00
50093;BME280;35974;47.752;10.290;2023-04-24T05:54:16;93053.41;;;6.73;100.00
50093;BME280;35974;47.752;10.290;2023-04-24T05:56:42;93058.19;;;6.83;100.00
50093;BME280;35974;47.752;10.290;2023-04-24T05:59:22;93066.19;;;6.88;100.00
50093;BME280;35974;47.752;10.290;2023-04-24T06:01:48;93065.78;;;6.91;100.00
50093;BME280;35974;47.752;10.290;2023-04-24T06:04:14;93065.41;;;6.94;100.00
50093;BME280;35974;47.752;10.290;2023-04-24T06:06:41;93071.41;;;6.88;100.00
50093;BME280;35974;47.752;10.290;2023-04-24T06:09:18;93063.19;;;6.91;100.00
50093;BME280;35974;47.752;10.290;2023-04-24T06:11:44;93073.00;;;7.03;100.00
50093;BME280;35974;47.752;10.290;2023-04-24T06:14:10;93070.72;;;7.46;100.00
50093;BME280;35974;47.752;10.290;2023-04-24T06:16:37;93071.91;;;7.44;100.00
50093;BME280;35974;47.752;10.290;2023-04-24T06:19:05;93081.34;;;7.45;100.00
50093;BME280;35974;47.752;10.290;2023-04-24T06:21:31;93084.56;;;7.33;100.00
50093;BME280;35974;47.752;10.290;2023-04-24T06:23:57;93095.44;;;7.89;100.00
50093;BME280;35974;47.752;10.290;2023-04-24T06:26:24;93088.03;;;7.86;100.00
50093;BME280;35974;47.752;10.290;2023-04-24T06:29:05;93088.09;;;7.66;100.00
50093;BME280;35974;47.752;10.290;2023-04-24T06:31:33;93102.00;;;7.98;100.00
50093;BME280;35974;47.752;10.290;2023-04-24T06:34:03;93096.81;;;7.98;100.00
50093;BME280;35974;47.752;10.290;2023-04-24T06:36:29;93102.06;;;7.85;100.00
50093;BME280;35974;47.752;10.290;2023-04-24T06:38:57;93106.81;;;8.01;100.00
50093;BME280;35974;47.752;10.290;2023-04-24T06:41:23;93108.75;;;8.19;100.00
50093;BME280;35974;47.752;10.290;2023-04-24T06:43:50;93110.56;;;8.19;100.00
50093;BME280;35974;47.752;10.290;2023-04-24T06:46:16;93107.94;;;8.19;100.00
50093;BME280;35974;47.752;10.290;2023-04-24T06:48:43;93120.00;;;8.06;100.00
50093;BME280;35974;47.752;10.290;2023-04-24T06:51:09;93129.06;;;7.97;100.00
50093;BME280;35974;47.752;10.290;2023-04-24T06:53:36;93135.13;;;7.78;100.00
50093;BME280;35974;47.752;10.290;2023-04-24T06:56:02;93146.13;;;7.80;100.00
50093;BME280;35974;47.752;10.290;2023-04-24T06:58:30;93151.00;;;7.56;100.00
50093;BME280;35974;47.752;10.290;2023-04-24T07:00:56;93142.59;;;7.34;100.00
50093;BME280;35974;47.752;10.290;2023-04-24T07:03:22;93142.63;;;7.27;100.00
50093;BME280;35974;47.752;10.290;2023-04-24T07:05:49;93149.03;;;7.31;100.00
50093;BME280;35974;47.752;10.290;2023-04-24T07:08:15;93148.63;;;7.21;100.00
50093;BME280;35974;47.752;10.290;2023-04-24T07:10:44;93149.03;;;7.31;100.00
50093;BME280;35974;47.752;10.290;2023-04-24T07:13:11;93140.22;;;7.19;100.00
50093;BME280;35974;47.752;10.290;2023-04-24T07:15:38;93149.03;;;7.25;100.00
50093;BME280;35974;47.752;10.290;2023-04-24T07:18:05;93139.81;;;7.36;100.00
50093;BME280;35974;47.752;10.290;2023-04-24T07:20:32;93144.16;;;7.62;100.00
50093;BME280;35974;47.752;10.290;2023-04-24T07:22:59;93131.38;;;7.47;100.00
50093;BME280;35974;47.752;10.290;2023-04-24T07:25:25;93140.00;;;7.54;100.00
50093;BME280;35974;47.752;10.290;2023-04-24T07:27:54;93140.50;;;7.96;100.00
50093;BME280;35974;47.752;10.290;2023-04-24T07:30:20;93135.72;;;7.80;100.00
50093;BME280;35974;47.752;10.290;2023-04-24T07:32:46;93133.31;;;7.85;100.00
50093;BME280;35974;47.752;10.290;2023-04-24T07:35:13;93138.78;;;8.22;100.00
50093;BME280;35974;47.752;10.290;2023-04-24T07:37:39;93150.78;;;8.30;100.00
50093;BME280;35974;47.752;10.290;2023-04-24T07:40:06;93145.13;;;8.39;100.00
50093;BME280;35974;47.752;10.290;2023-04-24T07:42:33;93149.66;;;8.19;100.00
50093;BME280;35974;47.752;10.290;2023-04-24T07:45:00;93150.03;;;8.22;100.00
50093;BME280;35974;47.752;10.290;2023-04-24T07:47:27;93150.41;;;8.26;100.00
50093;BME280;35974;47.752;10.290;2023-04-24T07:49:53;93154.41;;;8.29;100.00
50093;BME280;35974;47.752;10.290;2023-04-24T07:52:19;93161.78;;;8.45;100.00
50093;BME280;35974;47.752;10.290;2023-04-24T07:54:58;93156.97;;;8.42;100.00
50093;BME280;35974;47.752;10.290;2023-04-24T07:57:26;93161.19;;;8.36;100.00
50093;BME280;35974;47.752;10.290;2023-04-24T07:59:52;93158.38;;;8.45;100.00
50093;BME280;35974;47.752;10.290;2023-04-24T08:02:19;93170.78;;;8.42;100.00
50093;BME280;35974;47.752;10.290;2023-04-24T08:04:45;93177.34;;;8.06;100.00
50093;BME280;35974;47.752;10.290;2023-04-24T08:07:12;93168.53;;;8.07;100.00
50093;BME280;35974;47.752;10.290;2023-04-24T08:12:10;93173.75;;;8.07;100.00
50093;BME280;35974;47.752;10.290;2023-04-24T08:14:37;93173.69;;;8.21;100.00
50093;BME280;35974;47.752;10.290;2023-04-24T08:17:03;93181.44;;;8.34;100.00
50093;BME280;35974;47.752;10.290;2023-04-24T08:19:29;93194.41;;;8.54;100.00
50093;BME280;35974;47.752;10.290;2023-04-24T08:21:55;93187.66;;;8.40;100.00
50093;BME280;35974;47.752;10.290;2023-04-24T08:24:22;93194.44;;;8.41;100.00
50093;BME280;35974;47.752;10.290;2023-04-24T08:26:49;93197.00;;;8.61;100.00
50093;BME280;35974;47.752;10.290;2023-04-24T08:29:20;93192.47;;;8.50;100.00
50093;BME280;35974;47.752;10.290;2023-04-24T08:31:46;93204.97;;;8.14;100.00
50093;BME280;35974;47.752;10.290;2023-04-24T08:34:13;93200.44;;;8.61;100.00
50093;BME280;35974;47.752;10.290;2023-04-24T08:36:39;93195.50;;;8.78;100.00
50093;BME280;35974;47.752;10.290;2023-04-24T08:39:13;93189.63;;;8.51;100.00
50093;BME280;35974;47.752;10.290;2023-04-24T08:41:41;93189.88;;;8.82;100.00
50093;BME280;35974;47.752;10.290;2023-04-24T08:44:09;93180.53;;;8.67;100.00
50093;BME280;35974;47.752;10.290;2023-04-24T08:46:36;93198.84;;;8.54;100.00
50093;BME280;35974;47.752;10.290;2023-04-24T08:49:03;93187.19;;;8.63;100.00
50093;BME280;35974;47.752;10.290;2023-04-24T08:51:29;93182.63;;;8.84;100.00
50093;BME280;35974;47.752;10.290;2023-04-24T08:53:57;93189.13;;;8.74;100.00
50093;BME280;35974;47.752;10.290;2023-04-24T08:56:25;93194.03;;;8.51;100.00
50093;BME280;35974;47.752;10.290;2023-04-24T08:58:53;93199.66;;;8.48;100.00
50093;BME280;35974;47.752;10.290;2023-04-24T09:01:20;93187.59;;;8.60;100.00
50093;BME280;35974;47.752;10.290;2023-04-24T09:03:50;93172.97;;;8.91;100.00
50093;BME280;35974;47.752;10.290;2023-04-24T09:06:17;93190.47;;;9.15;100.00
50093;BME280;35974;47.752;10.290;2023-04-24T09:08:45;93178.53;;;9.01;100.00
50093;BME280;35974;47.752;10.290;2023-04-24T09:11:13;93184.94;;;9.05;100.00
50093;BME280;35974;47.752;10.290;2023-04-24T09:13:40;93175.00;;;8.89;100.00
50093;BME280;35974;47.752;10.290;2023-04-24T09:16:07;93189.09;;;8.81;100.00
50093;BME280;35974;47.752;10.290;2023-04-24T09:18:33;93192.72;;;8.73;100.00
50093;BME280;35974;47.752;10.290;2023-04-24T09:21:07;93178.78;;;8.93;100.00
50093;BME280;35974;47.752;10.290;2023-04-24T09:23:34;93186.28;;;8.83;100.00
50093;BME280;35974;47.752;10.290;2023-04-24T09:26:01;93174.56;;;8.92;100.00
50093;BME280;35974;47.752;10.290;2023-04-24T09:28:31;93179.44;;;9.13;100.00
50093;BME280;35974;47.752;10.290;2023-04-24T09:31:08;93162.25;;;9.31;100.00
50093;BME280;35974;47.752;10.290;2023-04-24T09:33:35;93159.00;;;9.61;100.00
50093;BME280;35974;47.752;10.290;2023-04-24T09:36:02;93169.78;;;9.89;100.00
50093;BME280;35974;47.752;10.290;2023-04-24T09:38:36;93173.09;;;9.97;100.00
50093;BME280;35974;47.752;10.290;2023-04-24T09:41:03;93182.94;;;9.76;100.00
50093;BME280;35974;47.752;10.290;2023-04-24T09:43:30;93211.06;;;9.56;100.00
50093;BME280;35974;47.752;10.290;2023-04-24T09:45:57;93215.53;;;8.85;100.00
50093;BME280;35974;47.752;10.290;2023-04-24T09:48:34;93204.13;;;8.86;100.00
50093;BME280;35974;47.752;10.290;2023-04-24T09:51:02;93208.22;;;8.68;100.00
50093;BME280;35974;47.752;10.290;2023-04-24T09:53:29;93212.34;;;8.83;100.00
50093;BME280;35974;47.752;10.290;2023-04-24T09:55:56;93205.19;;;9.35;100.00
50093;BME280;35974;47.752;10.290;2023-04-24T09:58:28;93214.75;;;9.48;100.00
50093;BME280;35974;47.752;10.290;2023-04-24T10:00:55;93220.34;;;9.51;100.00
50093;BME280;35974;47.752;10.290;2023-04-24T10:03:25;93229.41;;;9.17;100.00
50093;BME280;35974;47.752;10.290;2023-04-24T10:05:53;93228.69;;;9.03;100.00
50093;BME280;35974;47.752;10.290;2023-04-24T10:08:20;93237.28;;;9.10;100.00
50093;BME280;35974;47.752;10.290;2023-04-24T10:10:57;93227.19;;;8.89;100.00
50093;BME280;35974;47.752;10.290;2023-04-24T10:13:25;93230.13;;;8.99;100.00
50093;BME280;35974;47.752;10.290;2023-04-24T10:15:51;93236.34;;;8.98;100.00
50093;BME280;35974;47.752;10.290;2023-04-24T10:18:18;93233.59;;;9.25;100.00
50093;BME280;35974;47.752;10.290;2023-04-24T10:20:47;93232.66;;;9.69;100.00
50093;BME280;35974;47.752;10.290;2023-04-24T10:23:13;93231.09;;;9.62;100.00
50093;BME280;35974;47.752;10.290;2023-04-24T10:25:40;93241.88;;;9.72;100.00
50093;BME280;35974;47.752;10.290;2023-04-24T10:28:19;93242.41;;;9.81;100.00
50093;BME280;35974;47.752;10.290;2023-04-24T10:35:56;93240.69;;;9.68;100.00
50093;BME280;35974;47.752;10.290;2023-04-24T10:38:30;93244.53;;;9.90;100.00
50093;BME280;35974;47.752;10.290;2023-04-24T10:46:45;93255.22;;;9.64;100.00
50093;BME280;35974;47.752;10.290;2023-04-24T10:49:14;93253.28;;;10.03;100.00
50093;BME280;35974;47.752;10.290;2023-04-24T10:54:29;93255.13;;;10.21;100.00
50093;BME280;35974;47.752;10.290;2023-04-24T10:59:44;93257.50;;;10.22;100.00
50093;BME280;35974;47.752;10.290;2023-04-24T11:02:24;93269.53;;;10.05;100.00
50093;BME280;35974;47.752;10.290;2023-04-24T11:05:14;93255.69;;;9.54;100.00
50093;BME280;35974;47.752;10.290;2023-04-24T11:10:33;93252.81;;;9.62;100.00
50093;BME280;35974;47.752;10.290;2023-04-24T11:13:01;93241.22;;;10.02;100.00
50093;BME280;35974;47.752;10.290;2023-04-24T11:15:34;93250.19;;;9.87;100.00
50093;BME280;35974;47.752;10.290;2023-04-24T11:18:00;93257.00;;;9.88;100.00
50093;BME280;35974;47.752;10.290;2023-04-24T11:20:33;93257.22;;;10.12;100.00
50093;BME280;35974;47.752;10.290;2023-04-24T11:23:07;93250.66;;;10.21;100.00
50093;BME280;35974;47.752;10.290;2023-04-24T11:25:35;93256.16;;;9.95;100.00
50093;BME280;35974;47.752;10.290;2023-04-24T11:28:04;93236.03;;;9.95;100.00
50093;BME280;35974;47.752;10.290;2023-04-24T11:30:32;93243.53;;;10.10;100.00
50093;BME280;35974;47.752;10.290;2023-04-24T11:33:03;93220.44;;;9.88;100.00
50093;BME280;35974;47.752;10.290;2023-04-24T11:35:39;93237.16;;;10.06;100.00
50093;BME280;35974;47.752;10.290;2023-04-24T11:38:06;93254.19;;;10.52;100.00
50093;BME280;35974;47.752;10.290;2023-04-24T11:43:19;93247.50;;;10.38;98.04
50093;BME280;35974;47.752;10.290;2023-04-24T11:45:51;93245.66;;;10.45;100.00
50093;BME280;35974;47.752;10.290;2023-04-24T11:48:24;93262.09;;;10.27;98.72
50093;BME280;35974;47.752;10.290;2023-04-24T11:50:56;93241.72;;;10.36;100.00
50093;BME280;35974;47.752;10.290;2023-04-24T11:53:22;93239.56;;;10.81;100.00
50093;BME280;35974;47.752;10.290;2023-04-24T11:55:49;93246.34;;;10.52;96.68
50093;BME280;35974;47.752;10.290;2023-04-24T11:58:15;93265.81;;;10.38;100.00
50093;BME280;35974;47.752;10.290;2023-04-24T12:00:55;93263.81;;;10.15;100.00
50093;BME280;35974;47.752;10.290;2023-04-24T12:03:24;93264.28;;;10.30;100.00
50093;BME280;35974;47.752;10.290;2023-04-24T12:06:04;93264.28;;;10.30;99.45
50093;BME280;35974;47.752;10.290;2023-04-24T12:08:38;93262.78;;;10.59;100.00
50093;BME280;35974;47.752;10.290;2023-04-24T12:16:30;93268.44;;;10.38;100.00
50093;BME280;35974;47.752;10.290;2023-04-24T12:18:59;93261.94;;;10.22;99.82
50093;BME280;35974;47.752;10.290;2023-04-24T12:21:28;93271.06;;;10.38;99.36
50093;BME280;35974;47.752;10.290;2023-04-24T12:23:57;93280.44;;;10.64;99.46
50093;BME280;35974;47.752;10.290;2023-04-24T12:26:24;93260.84;;;10.85;96.19
50093;BME280;35974;47.752;10.290;2023-04-24T12:29:01;93276.03;;;10.95;97.61
50093;BME280;35974;47.752;10.290;2023-04-24T12:31:30;93282.13;;;10.58;91.42
50093;BME280;35974;47.752;10.290;2023-04-24T12:33:58;93269.56;;;10.23;94.96
50093;BME280;35974;47.752;10.290;2023-04-24T12:36:24;93280.25;;;10.22;95.10
50093;BME280;35974;47.752;10.290;2023-04-24T12:38:52;93278.31;;;10.36;96.99
50093;BME280;35974;47.752;10.290;2023-04-24T12:41:20;93268.53;;;10.50;96.26
50093;BME280;35974;47.752;10.290;2023-04-24T12:43:54;93282.25;;;10.82;92.09
50093;BME280;35974;47.752;10.290;2023-04-24T12:46:22;93264.38;;;10.60;88.42
50093;BME280;35974;47.752;10.290;2023-04-24T12:48:49;93267.09;;;11.03;92.69
50093;BME280;35974;47.752;10.290;2023-04-24T12:51:15;93270.47;;;11.52;91.59
50093;BME280;35974;47.752;10.290;2023-04-24T12:53:42;93264.63;;;11.50;91.09
50093;BME280;35974;47.752;10.290;2023-04-24T12:56:08;93273.88;;;11.22;86.30
50093;BME280;35974;47.752;10.290;2023-04-24T12:58:35;93282.25;;;10.82;84.67
50093;BME280;35974;47.752;10.290;2023-04-24T13:01:01;93285.44;;;10.84;85.54
50093;BME280;35974;47.752;10.290;2023-04-24T13:03:33;93273.22;;;10.96;87.17
50093;BME280;35974;47.752;10.290;2023-04-24T13:06:00;93276.84;;;11.26;84.58
50093;BME280;35974;47.752;10.290;2023-04-24T13:08:31;93280.75;;;11.05;86.13
50093;BME280;35974;47.752;10.290;2023-04-24T13:10:59;93285.25;;;11.16;84.90
50093;BME280;35974;47.752;10.290;2023-04-24T13:13:25;93283.13;;;11.25;85.93
50093;BME280;35974;47.752;10.290;2023-04-24T13:15:53;93288.34;;;11.55;88.24
50093;BME280;35974;47.752;10.290;2023-04-24T13:18:22;93280.22;;;11.45;82.35
50093;BME280;35974;47.752;10.290;2023-04-24T13:23:26;93277.94;;;11.36;81.09
50093;BME280;35974;47.752;10.290;2023-04-24T13:25:55;93282.03;;;11.32;81.92
50093;BME280;35974;47.752;10.290;2023-04-24T13:28:24;93290.16;;;10.94;80.95
50093;BME280;35974;47.752;10.290;2023-04-24T13:30:52;93265.59;;;11.25;85.11
50093;BME280;35974;47.752;10.290;2023-04-24T13:33:31;93275.50;;;11.65;82.74
50093;BME280;35974;47.752;10.290;2023-04-24T13:35:57;93271.59;;;11.56;80.83
50093;BME280;35974;47.752;10.290;2023-04-24T13:38:23;93270.63;;;11.39;80.67
50093;BME280;35974;47.752;10.290;2023-04-24T13:40:59;93269.63;;;11.82;83.07